Time;durP1;ratioP1;P1;durP2;ratioP2;P2;SDS_P1;SDS_P2;PMS_P1;PMS_P2;Temp;Humidity;BMP_temperature;BMP_pressure;BME280_temperature;BME280_humidity;BME280_pressure;Samples;Min_cycle;Max_cycle;Signal;HPM_P1;HPM_P2
2023/01/10 00:01:56;;;;;;;5.70;1.88;;;;;;;8.07;77.88;99181.84;5013863;28;20140;-80
2023/01/10 00:04:25;;;;;;;5.45;2.03;;;;;;;8.04;77.54;99188.09;5014017;28;20056;-80
2023/01/10 00:06:52;;;;;;;5.18;1.90;;;;;;;8.01;77.64;99188.31;5012445;28;20153;-79
2023/01/10 00:09:18;;;;;;;4.57;1.75;;;;;;;7.99;77.93;99203.25;5013904;28;20065;-80
2023/01/10 00:14:33;;;;;;;8.82;2.17;;;;;;;7.93;77.59;99208.84;5013835;28;20133;-79
2023/01/10 00:17:03;;;;;;;5.50;1.75;;;;;;;7.89;77.37;99210.75;5013307;28;20058;-79
2023/01/10 00:19:30;;;;;;;4.85;1.77;;;;;;;7.86;77.76;99213.56;5013939;28;20054;-80
2023/01/10 00:22:01;;;;;;;4.07;1.63;;;;;;;7.83;77.93;99213.72;5012652;28;20068;-80
2023/01/10 00:24:28;;;;;;;6.35;2.35;;;;;;;7.81;77.75;99229.53;5013862;28;20089;-80
2023/01/10 00:26:54;;;;;;;5.18;2.20;;;;;;;7.79;78.33;99239.25;5013551;28;20141;-79
2023/01/10 00:29:24;;;;;;;7.43;2.65;;;;;;;7.77;77.92;99235.88;5013548;28;20140;-80
2023/01/10 00:31:51;;;;;;;9.50;2.60;;;;;;;7.77;78.38;99242.88;5051261;22;20138;-78
2023/01/10 00:34:18;;;;;;;8.48;2.83;;;;;;;7.76;78.46;99251.66;5011941;28;20054;-78
2023/01/10 00:36:46;;;;;;;8.10;3.10;;;;;;;7.73;78.58;99257.91;5013258;28;20516;-78
2023/01/10 00:39:19;;;;;;;8.52;2.33;;;;;;;7.72;78.62;99258.84;5013493;28;20101;-79
2023/01/10 00:44:31;;;;;;;11.10;4.45;;;;;;;7.74;78.78;99274.50;5013192;28;20564;-79
2023/01/10 00:46:57;;;;;;;10.23;3.13;;;;;;;7.74;78.80;99277.13;5006211;28;20053;-78
2023/01/10 00:49:23;;;;;;;8.02;3.42;;;;;;;7.74;78.64;99274.50;5012902;28;20498;-78
2023/01/10 00:51:50;;;;;;;11.40;4.32;;;;;;;7.72;78.82;99271.94;5019844;28;20081;-79
2023/01/10 00:54:16;;;;;;;9.55;4.28;;;;;;;7.74;79.00;99287.59;5012999;28;20057;-79
2023/01/10 00:56:43;;;;;;;11.50;4.15;;;;;;;7.74;78.96;99290.22;5011937;28;20049;-78
2023/01/10 00:59:09;;;;;;;11.00;4.03;;;;;;;7.76;79.14;99298.81;5012779;28;20050;-78
2023/01/10 01:01:36;;;;;;;12.88;4.25;;;;;;;7.77;79.20;99300.50;5012331;28;20498;-78
2023/01/10 01:04:02;;;;;;;12.27;4.60;;;;;;;7.79;79.06;99304.78;4999683;28;20053;-80
2023/01/10 01:06:29;;;;;;;13.05;5.15;;;;;;;7.80;78.70;99309.06;4993198;28;20054;-78
2023/01/10 01:08:55;;;;;;;15.85;4.35;;;;;;;7.81;78.67;99321.25;4992814;28;20062;-78
2023/01/10 01:11:22;;;;;;;10.75;3.95;;;;;;;7.82;78.47;99327.34;4993062;28;20133;-79
2023/01/10 01:13:48;;;;;;;14.48;5.03;;;;;;;7.81;77.97;99320.38;4993068;28;20093;-78
2023/01/10 01:16:16;;;;;;;13.57;4.40;;;;;;;7.80;77.74;99340.53;4993027;28;20047;-78
2023/01/10 01:18:42;;;;;;;15.27;4.72;;;;;;;7.77;77.94;99331.94;4992863;28;20495;-78
2023/01/10 01:21:08;;;;;;;14.05;4.35;;;;;;;7.74;77.66;99348.69;4993001;28;20058;-78
2023/01/10 01:23:35;;;;;;;12.60;4.25;;;;;;;7.73;77.80;99356.66;4991655;28;20066;-79
2023/01/10 01:26:02;;;;;;;11.90;4.13;;;;;;;7.69;77.68;99362.03;4999530;28;20108;-78
2023/01/10 01:28:28;;;;;;;16.10;5.10;;;;;;;7.66;77.52;99371.81;5010543;28;20054;-78
2023/01/10 01:30:55;;;;;;;12.32;4.22;;;;;;;7.63;77.55;99375.44;5004191;28;20046;-77
2023/01/10 01:33:21;;;;;;;19.58;4.35;;;;;;;7.60;77.55;99380.00;5012248;28;20526;-79
2023/01/10 01:35:49;;;;;;;14.18;4.40;;;;;;;7.58;77.63;99385.31;5012101;28;20081;-79
2023/01/10 01:38:16;;;;;;;14.95;4.20;;;;;;;7.56;77.94;99395.03;5012049;28;20128;-79
2023/01/10 01:40:43;;;;;;;14.18;4.60;;;;;;;7.55;78.50;99398.53;5012180;28;20061;-79
2023/01/10 01:43:28;;;;;;;13.32;4.90;;;;;;;7.52;77.61;99406.56;5012138;28;20052;-78
2023/01/10 01:45:59;;;;;;;16.40;4.13;;;;;;;7.54;78.22;99397.72;5011992;28;20062;-79
2023/01/10 01:48:40;;;;;;;12.50;4.43;;;;;;;7.56;78.73;99403.72;5012354;28;20128;-78
2023/01/10 01:51:15;;;;;;;12.68;4.43;;;;;;;7.57;78.36;99412.44;5012094;28;20050;-78
2023/01/10 01:53:53;;;;;;;15.82;3.85;;;;;;;7.59;78.67;99412.34;5010977;28;20057;-79
2023/01/10 01:56:24;;;;;;;15.48;4.25;;;;;;;7.59;78.16;99418.41;5012072;28;20061;-78
2023/01/10 01:59:13;;;;;;;14.90;4.35;;;;;;;7.60;78.53;99417.53;5011892;28;20093;-78
2023/01/10 02:01:41;;;;;;;12.60;3.30;;;;;;;7.63;78.26;99427.81;5010539;28;20108;-79
2023/01/10 02:04:15;;;;;;;14.57;3.58;;;;;;;7.62;78.48;99423.50;5012071;28;20060;-77
2023/01/10 02:06:44;;;;;;;17.90;3.53;;;;;;;7.63;78.42;99425.19;5011793;28;20495;-77
2023/01/10 02:09:20;;;;;;;9.57;3.42;;;;;;;7.63;78.00;99427.81;5010591;28;20057;-79
2023/01/10 02:11:47;;;;;;;17.20;3.75;;;;;;;7.66;78.53;99432.06;5011984;28;20076;-77
2023/01/10 02:14:14;;;;;;;15.02;4.22;;;;;;;7.66;78.42;99435.53;5011808;28;20104;-79
2023/01/10 02:16:41;;;;;;;12.38;4.13;;;;;;;7.66;78.11;99437.28;5011734;28;20084;-78
2023/01/10 02:19:22;;;;;;;11.68;3.65;;;;;;;7.64;77.74;99439.16;5011745;28;20123;-79
2023/01/10 02:21:58;;;;;;;14.80;3.63;;;;;;;7.63;77.56;99442.72;5011315;28;20058;-79
2023/01/10 02:24:51;;;;;;;13.20;4.88;;;;;;;7.63;77.39;99435.69;5010260;28;20085;-79
2023/01/10 02:27:28;;;;;;;12.20;3.83;;;;;;;7.63;77.13;99435.69;5011537;28;20057;-78
2023/01/10 02:30:12;;;;;;;16.17;4.13;;;;;;;7.61;77.10;99440.16;5011498;28;20050;-77
2023/01/10 02:33:01;;;;;;;16.27;3.42;;;;;;;7.61;77.13;99434.94;5011536;28;20410;-77
2023/01/10 02:35:53;;;;;;;14.40;3.50;;;;;;;7.59;76.63;99456.88;5011332;28;20058;-80
2023/01/10 02:38:41;;;;;;;16.58;3.85;;;;;;;7.62;77.64;99459.38;5011244;28;20482;-78
2023/01/10 02:41:51;;;;;;;18.15;3.38;;;;;;;7.57;77.25;99451.72;5011351;28;20062;-79
2023/01/10 02:44:27;;;;;;;10.10;3.35;;;;;;;7.59;77.65;99455.09;5002412;28;20112;-80
2023/01/10 02:46:55;;;;;;;14.93;3.25;;;;;;;7.61;78.57;99458.50;5010844;28;20085;-77
2023/01/10 02:49:21;;;;;;;12.65;3.72;;;;;;;7.60;78.43;99454.19;5010837;28;20061;-80
2023/01/10 02:51:48;;;;;;;15.80;3.35;;;;;;;7.61;78.59;99455.88;5011102;28;20414;-79
2023/01/10 02:54:23;;;;;;;18.27;3.70;;;;;;;7.60;77.48;99451.56;5010944;28;20054;-79
2023/01/10 02:57:23;;;;;;;17.95;3.88;;;;;;;7.58;76.99;99449.97;5009722;28;20058;-78
2023/01/10 02:59:59;;;;;;;13.15;3.58;;;;;;;7.57;76.17;99456.97;5011080;28;20650;-78
2023/01/10 03:02:47;;;;;;;13.93;3.25;;;;;;;7.54;76.55;99457.97;5011239;28;20077;-78
2023/01/10 03:05:44;;;;;;;15.52;3.65;;;;;;;7.51;76.14;99465.97;5010973;28;20069;-78
2023/01/10 03:08:29;;;;;;;20.27;3.75;;;;;;;7.49;76.38;99474.81;5010924;28;20484;-79
2023/01/10 03:10:56;;;;;;;15.13;3.35;;;;;;;7.50;77.93;99474.75;5011115;28;20057;-78
2023/01/10 03:13:49;;;;;;;9.93;3.50;;;;;;;7.47;77.17;99481.91;5011145;28;20060;-78
2023/01/10 03:16:18;;;;;;;10.52;3.88;;;;;;;7.49;77.80;99480.06;5003346;28;20057;-78
2023/01/10 03:18:50;;;;;;;15.45;3.60;;;;;;;7.48;78.13;99476.56;5009418;28;20491;-78
2023/01/10 03:21:19;;;;;;;18.77;4.03;;;;;;;7.50;78.57;99479.97;5011039;28;20066;-78
2023/01/10 03:23:49;;;;;;;10.40;4.15;;;;;;;7.50;77.88;99484.38;5010854;28;20061;-79
2023/01/10 03:26:25;;;;;;;16.83;3.90;;;;;;;7.52;77.22;99499.06;5010719;28;20054;-79
2023/01/10 03:29:00;;;;;;;12.20;3.80;;;;;;;7.53;76.91;99502.56;5010667;28;20120;-78
2023/01/10 03:31:44;;;;;;;18.35;4.78;;;;;;;7.49;76.15;99496.63;5011244;28;20548;-78
2023/01/10 03:34:11;;;;;;;15.07;4.45;;;;;;;7.50;76.85;99511.41;5007160;28;20610;-78
2023/01/10 03:36:55;;;;;;;13.35;3.70;;;;;;;7.43;75.59;99508.25;4994869;28;20054;-79
2023/01/10 03:39:40;;;;;;;10.18;3.17;;;;;;;7.41;76.24;99520.53;4994943;28;20089;-78
2023/01/10 03:42:12;;;;;;;12.80;3.78;;;;;;;7.38;76.16;99525.94;4993780;28;20109;-79
2023/01/10 03:45:05;;;;;;;14.32;4.00;;;;;;;7.35;75.26;99531.31;4995022;28;20058;-78
2023/01/10 03:47:40;;;;;;;14.95;4.65;;;;;;;7.33;76.32;99533.16;4994725;28;20055;-78
2023/01/10 03:50:16;;;;;;;19.30;3.75;;;;;;;7.31;76.20;99545.47;4994767;28;20050;-79
2023/01/10 03:52:44;;;;;;;14.85;3.53;;;;;;;7.31;77.01;99548.09;4993645;28;20058;-78
2023/01/10 03:55:13;;;;;;;14.98;4.10;;;;;;;7.27;76.62;99551.78;4994835;28;20146;-78
2023/01/10 03:57:44;;;;;;;17.55;4.78;;;;;;;7.24;76.44;99549.28;4994421;28;20065;-77
2023/01/10 04:00:12;;;;;;;15.85;4.57;;;;;;;7.23;76.94;99547.59;4994588;28;20065;-78
2023/01/10 04:02:39;;;;;;;15.05;4.38;;;;;;;7.19;76.87;99546.91;4994282;28;20050;-77
2023/01/10 04:05:06;;;;;;;15.77;4.25;;;;;;;7.15;76.66;99556.66;4993183;28;20062;-78
2023/01/10 04:07:33;;;;;;;15.35;4.85;;;;;;;7.12;76.91;99556.81;4994344;28;20407;-78
2023/01/10 04:10:00;;;;;;;19.58;4.28;;;;;;;7.09;76.83;99562.19;4994584;28;20121;-78
2023/01/10 04:12:26;;;;;;;9.02;4.25;;;;;;;7.07;77.31;99556.19;4993014;28;20113;-78
2023/01/10 04:14:52;;;;;;;17.58;4.30;;;;;;;7.04;77.06;99561.53;4994025;28;20058;-78
2023/01/10 04:17:19;;;;;;;14.40;4.45;;;;;;;7.02;77.33;99563.38;4994003;28;20081;-77
2023/01/10 04:19:45;;;;;;;17.15;4.50;;;;;;;7.00;77.30;99565.22;4993197;28;20054;-77
2023/01/10 04:22:12;;;;;;;17.98;4.68;;;;;;;6.97;76.95;99560.13;4994101;28;20098;-79
2023/01/10 04:24:39;;;;;;;19.00;4.60;;;;;;;6.96;77.06;99572.38;4994079;28;20058;-79
2023/01/10 04:27:06;;;;;;;15.70;4.80;;;;;;;6.94;77.20;99581.19;4993576;28;20046;-79
2023/01/10 04:29:32;;;;;;;17.45;4.78;;;;;;;6.90;77.48;99576.09;4998808;28;20457;-78
2023/01/10 04:31:59;;;;;;;14.35;5.03;;;;;;;6.89;77.31;99578.78;5013543;28;20053;-79
2023/01/10 04:34:26;;;;;;;16.27;4.63;;;;;;;6.87;77.51;99576.25;5012562;28;20065;-78
2023/01/10 04:36:52;;;;;;;18.58;4.75;;;;;;;6.84;77.32;99589.44;5013237;28;20243;-78
2023/01/10 04:39:18;;;;;;;18.15;5.47;;;;;;;6.83;77.77;99592.97;5013525;28;20053;-78
2023/01/10 04:41:45;;;;;;;15.75;5.18;;;;;;;6.81;77.94;99589.59;5013356;28;20050;-78
2023/01/10 04:44:11;;;;;;;12.23;4.78;;;;;;;6.81;77.90;99593.97;5012447;28;20050;-78
2023/01/10 04:46:40;;;;;;;16.42;4.43;;;;;;;6.79;77.69;99599.28;5013437;28;20189;-78
2023/01/10 04:49:08;;;;;;;15.15;5.07;;;;;;;6.81;78.14;99588.75;5013380;28;20054;-78
2023/01/10 04:51:35;;;;;;;22.20;5.18;;;;;;;6.81;78.07;99593.97;5013385;28;20067;-79
2023/01/10 04:54:01;;;;;;;21.63;5.13;;;;;;;6.82;78.38;99600.91;5012094;28;20057;-77
2023/01/10 04:56:28;;;;;;;11.57;4.22;;;;;;;6.82;78.42;99604.38;5013406;28;20465;-78
2023/01/10 04:58:55;;;;;;;16.90;4.43;;;;;;;6.83;78.01;99607.81;5012823;28;20057;-78
2023/01/10 05:01:23;;;;;;;14.32;4.72;;;;;;;6.82;77.84;99609.59;5013008;28;20490;-77
2023/01/10 05:03:52;;;;;;;13.90;4.72;;;;;;;6.83;78.28;99619.16;5011718;28;20080;-79
2023/01/10 05:06:20;;;;;;;15.68;4.55;;;;;;;6.83;78.45;99619.16;5012798;28;20494;-78
2023/01/10 05:08:46;;;;;;;19.88;4.30;;;;;;;6.85;78.57;99627.78;5012839;28;20058;-78
2023/01/10 05:11:13;;;;;;;19.35;4.80;;;;;;;6.86;78.64;99631.25;5012824;28;20061;-79
2023/01/10 05:13:40;;;;;;;17.25;4.40;;;;;;;6.87;78.36;99635.56;5011413;28;20058;-78
2023/01/10 05:16:07;;;;;;;15.43;4.18;;;;;;;6.89;78.73;99639.81;5012673;28;20411;-78
2023/01/10 05:18:33;;;;;;;16.95;4.90;;;;;;;6.91;78.66;99637.97;5012885;28;20088;-78
2023/01/10 05:21:08;;;;;;;15.13;4.50;;;;;;;6.89;78.05;99639.81;5012975;28;20078;-78
2023/01/10 05:23:35;;;;;;;18.13;4.18;;;;;;;6.93;78.41;99637.06;5012513;28;20054;-78
2023/01/10 05:26:22;;;;;;;16.27;4.45;;;;;;;6.88;77.10;99647.75;5012404;28;20061;-79
2023/01/10 05:28:48;;;;;;;18.90;4.57;;;;;;;6.93;78.58;99643.16;5011315;28;20076;-78
2023/01/10 05:31:17;;;;;;;20.52;4.35;;;;;;;6.92;78.34;99649.31;5012467;28;20112;-78
2023/01/10 05:33:50;;;;;;;19.30;5.05;;;;;;;6.91;78.02;99653.69;5012604;28;20054;-79
2023/01/10 05:36:17;;;;;;;15.70;4.20;;;;;;;6.93;78.62;99660.59;5012246;28;20104;-80
2023/01/10 05:38:44;;;;;;;13.95;4.70;;;;;;;6.94;78.65;99664.91;5012338;28;20069;-79
2023/01/10 05:41:11;;;;;;;14.63;3.85;;;;;;;6.95;78.79;99675.31;5012391;28;20100;-79
2023/01/10 05:43:37;;;;;;;17.83;4.00;;;;;;;6.96;78.71;99671.81;5012209;28;20089;-79
2023/01/10 05:46:03;;;;;;;15.75;4.90;;;;;;;6.98;78.86;99675.19;5010674;28;20556;-78
2023/01/10 05:48:30;;;;;;;11.55;3.90;;;;;;;6.99;79.01;99679.50;5012078;28;20054;-78
2023/01/10 05:50:56;;;;;;;17.70;4.65;;;;;;;7.01;78.66;99696.00;5010660;28;20499;-79
2023/01/10 05:53:23;;;;;;;10.75;4.45;;;;;;;7.03;78.68;99701.19;5012187;28;20054;-80
2023/01/10 05:55:57;;;;;;;16.02;4.75;;;;;;;7.00;77.76;99696.91;5010957;28;20046;-79
2023/01/10 05:58:24;;;;;;;16.30;4.30;;;;;;;7.06;78.67;99697.59;5011901;28;20058;-79
2023/01/10 06:00:51;;;;;;;15.27;4.03;;;;;;;7.06;78.76;99705.44;5011871;28;20086;-78
2023/01/10 06:03:17;;;;;;;11.45;3.38;;;;;;;7.06;78.76;99706.25;5011866;28;20751;-78
2023/01/10 06:05:44;;;;;;;13.90;4.28;;;;;;;7.09;78.68;99705.28;5011839;28;20064;-78
2023/01/10 06:08:13;;;;;;;12.70;3.65;;;;;;;7.08;78.84;99707.06;5011776;28;20136;-79
2023/01/10 06:10:40;;;;;;;16.33;4.63;;;;;;;7.10;78.75;99715.69;5010428;28;20120;-79
2023/01/10 06:13:08;;;;;;;18.23;4.78;;;;;;;7.10;78.60;99707.84;5011477;28;20065;-77
2023/01/10 06:15:35;;;;;;;18.80;4.63;;;;;;;7.12;78.85;99716.50;5011061;28;20085;-78
2023/01/10 06:18:02;;;;;;;16.70;4.68;;;;;;;7.13;78.33;99720.78;5010925;28;20490;-79
2023/01/10 06:20:28;;;;;;;15.45;4.47;;;;;;;7.13;78.48;99727.78;5010831;28;20789;-78
2023/01/10 06:22:55;;;;;;;15.18;4.90;;;;;;;7.12;78.48;99734.81;5010028;28;20056;-80
2023/01/10 06:25:21;;;;;;;17.98;5.97;;;;;;;7.13;78.63;99738.25;5010318;28;20050;-78
2023/01/10 06:27:47;;;;;;;16.63;5.43;;;;;;;7.13;78.96;99743.50;5011399;28;20088;-78
2023/01/10 06:30:14;;;;;;;17.63;5.03;;;;;;;7.14;78.50;99751.28;5010360;28;20112;-78
2023/01/10 06:35:07;;;;;;;19.20;5.20;;;;;;;7.14;78.34;99764.38;5015834;22;20509;-80
2023/01/10 06:37:34;;;;;;;16.58;5.05;;;;;;;7.13;78.65;99762.69;5012847;28;20096;-80
2023/01/10 06:40:01;;;;;;;19.58;5.22;;;;;;;7.13;78.28;99762.69;5031028;28;20053;-80
2023/01/10 06:42:27;;;;;;;18.60;5.50;;;;;;;7.12;78.67;99758.38;5030623;28;20173;-80
2023/01/10 06:44:54;;;;;;;16.25;4.95;;;;;;;7.13;78.66;99754.81;5030742;28;20132;-80
2023/01/10 06:47:21;;;;;;;15.05;5.75;;;;;;;7.10;78.26;99757.56;5030405;28;20136;-80
2023/01/10 06:49:47;;;;;;;21.60;6.00;;;;;;;7.13;78.84;99752.22;5030944;28;20089;-79
2023/01/10 06:52:14;;;;;;;19.92;5.78;;;;;;;7.13;78.47;99762.69;5030859;28;20140;-79
2023/01/10 06:54:40;;;;;;;17.08;6.85;;;;;;;7.14;78.70;99767.00;5030688;28;20060;-79
2023/01/10 06:57:07;;;;;;;19.55;5.88;;;;;;;7.15;78.88;99765.25;5030439;28;20065;-80
2023/01/10 06:59:34;;;;;;;20.20;7.10;;;;;;;7.15;78.62;99770.47;5030355;28;20096;-79
2023/01/10 07:02:00;;;;;;;13.77;6.15;;;;;;;7.14;78.60;99771.41;5030192;28;20049;-80
2023/01/10 07:04:27;;;;;;;23.15;7.30;;;;;;;7.15;78.42;99786.19;5030420;28;20165;-79
2023/01/10 07:06:54;;;;;;;15.75;6.40;;;;;;;7.15;78.78;99807.13;5029744;28;20057;-80
2023/01/10 07:09:20;;;;;;;22.02;6.82;;;;;;;7.14;78.83;99806.25;5030710;28;20068;-80
2023/01/10 07:11:47;;;;;;;23.60;7.32;;;;;;;7.16;78.98;99799.22;5030161;28;20054;-80
2023/01/10 07:14:13;;;;;;;21.08;7.18;;;;;;;7.19;78.84;99781.66;5030252;28;20053;-79
2023/01/10 07:16:40;;;;;;;18.25;6.72;;;;;;;7.17;78.78;99761.63;5029930;28;20050;-79
2023/01/10 07:19:06;;;;;;;16.30;6.65;;;;;;;7.20;78.43;99783.34;5030178;28;20046;-79
2023/01/10 07:21:33;;;;;;;22.38;7.32;;;;;;;7.18;78.09;99786.06;5030798;28;20057;-79
2023/01/10 07:23:59;;;;;;;17.88;6.90;;;;;;;7.16;77.97;99783.50;5012217;28;20065;-79
2023/01/10 07:26:28;;;;;;;26.58;7.45;;;;;;;7.15;78.29;99799.28;5030504;28;20223;-80
2023/01/10 07:28:55;;;;;;;18.15;7.05;;;;;;;7.12;78.08;99792.41;5029958;28;20672;-79
2023/01/10 07:31:23;;;;;;;21.70;7.53;;;;;;;7.11;78.03;99806.38;5030296;28;20434;-80
2023/01/10 07:33:50;;;;;;;24.85;7.25;;;;;;;7.09;77.87;99804.75;5030404;28;20061;-80
2023/01/10 07:36:18;;;;;;;20.40;6.80;;;;;;;7.07;78.24;99807.44;5030461;28;20054;-78
2023/01/10 07:38:44;;;;;;;22.23;8.15;;;;;;;7.04;78.03;99803.16;5030446;28;20057;-77
2023/01/10 07:41:11;;;;;;;19.38;6.75;;;;;;;7.04;78.39;99810.19;5030090;28;20069;-78
2023/01/10 07:43:37;;;;;;;23.27;8.18;;;;;;;7.04;78.55;99813.63;5030107;28;20085;-77
2023/01/10 07:46:08;;;;;;;26.67;8.20;;;;;;;7.03;78.47;99818.97;5028926;28;20152;-80
2023/01/10 07:48:35;;;;;;;18.52;7.72;;;;;;;7.03;78.77;99824.19;5028651;28;20145;-78
2023/01/10 07:51:02;;;;;;;22.30;7.70;;;;;;;7.04;78.90;99834.56;5028737;28;20061;-79
2023/01/10 07:53:29;;;;;;;18.70;7.28;;;;;;;7.06;78.96;99839.75;5028629;28;20053;-80
2023/01/10 07:56:00;;;;;;;21.58;7.90;;;;;;;7.05;78.92;99838.06;5028691;28;20041;-80
2023/01/10 07:58:27;;;;;;;27.77;7.68;;;;;;;7.10;79.26;99850.97;5011046;28;20111;-77
2023/01/10 08:00:59;;;;;;;22.85;8.75;;;;;;;7.10;78.66;99851.81;5029792;28;20068;-80
2023/01/10 08:03:26;;;;;;;23.88;8.15;;;;;;;7.15;79.24;99862.09;5012603;28;20085;-79
2023/01/10 08:05:58;;;;;;;29.75;9.00;;;;;;;7.14;78.43;99874.31;5029896;28;20046;-79
2023/01/10 08:08:24;;;;;;;20.77;7.45;;;;;;;7.18;79.11;99877.69;5028948;28;20053;-80
2023/01/10 08:10:51;;;;;;;24.63;8.52;;;;;;;7.17;79.15;99884.69;5028277;28;20698;-80
2023/01/10 08:13:17;;;;;;;24.98;7.60;;;;;;;7.19;79.11;99882.00;5028491;28;20144;-79
2023/01/10 08:15:46;;;;;;;26.70;7.97;;;;;;;7.20;78.59;99880.22;5028992;28;20535;-75
2023/01/10 08:18:13;;;;;;;22.67;7.68;;;;;;;7.22;79.10;99886.25;5030539;28;20516;-75
2023/01/10 08:20:39;;;;;;;25.30;8.10;;;;;;;7.21;78.69;99879.31;5033216;28;20490;-75
2023/01/10 08:23:06;;;;;;;21.42;7.57;;;;;;;7.22;78.54;99874.00;5033464;28;20490;-75
2023/01/10 08:25:32;;;;;;;27.65;7.70;;;;;;;7.24;78.67;99873.94;5033151;28;20087;-75
2023/01/10 08:27:59;;;;;;;32.75;8.13;;;;;;;7.25;78.71;99870.44;5032685;28;20357;-74
2023/01/10 08:30:26;;;;;;;22.88;8.13;;;;;;;7.27;79.03;99876.44;5033108;28;20156;-74
2023/01/10 08:32:52;;;;;;;23.17;7.80;;;;;;;7.28;79.03;99880.75;5015642;28;20049;-75
2023/01/10 08:35:19;;;;;;;23.27;8.18;;;;;;;7.27;78.72;99879.91;5033206;28;20069;-76
2023/01/10 08:37:45;;;;;;;27.42;7.75;;;;;;;7.30;78.61;99892.03;5033224;28;20057;-75
2023/01/10 08:40:12;;;;;;;28.88;8.32;;;;;;;7.28;78.59;99888.63;5032208;28;20458;-75
2023/01/10 08:42:39;;;;;;;22.02;7.45;;;;;;;7.28;78.25;99889.47;5033312;28;20612;-75
2023/01/10 08:45:06;;;;;;;20.50;8.38;;;;;;;7.28;78.35;99884.25;5015507;28;20063;-75
2023/01/10 08:47:33;;;;;;;24.77;8.00;;;;;;;7.28;78.27;99894.72;5033069;28;20064;-75
2023/01/10 08:50:04;;;;;;;24.92;8.68;;;;;;;7.27;78.48;99885.16;5033060;28;20046;-75
2023/01/10 08:52:33;;;;;;;26.20;8.60;;;;;;;7.27;78.19;99889.53;5033042;28;20053;-75
2023/01/10 08:55:00;;;;;;;24.23;7.88;;;;;;;7.27;78.54;99890.41;5032342;28;20811;-75
2023/01/10 08:57:26;;;;;;;32.53;9.05;;;;;;;7.27;78.74;99879.91;5015072;28;20057;-76
2023/01/10 08:59:53;;;;;;;27.02;9.30;;;;;;;7.29;78.92;99887.72;5029812;28;20509;-75
2023/01/10 09:02:19;;;;;;;23.40;7.68;;;;;;;7.29;78.77;99887.72;5032390;28;20475;-76
2023/01/10 09:04:46;;;;;;;29.63;8.82;;;;;;;7.31;78.50;99898.97;5014470;28;20650;-75
2023/01/10 09:07:12;;;;;;;26.20;8.30;;;;;;;7.32;78.50;99891.97;5032053;28;20115;-75
2023/01/10 09:09:39;;;;;;;26.05;7.30;;;;;;;7.34;78.33;99895.38;5032370;28;20050;-74
2023/01/10 09:12:53;;;;;;;25.00;8.65;;;;;;;7.35;79.08;99903.16;5032301;28;20059;-76
2023/01/10 09:14:52;;;;;;;25.50;8.20;;;;;;;7.36;78.43;99904.88;5029199;28;20053;-75
2023/01/10 09:17:18;;;;;;;29.52;8.77;;;;;;;7.35;78.14;99916.25;5032017;28;20053;-75
2023/01/10 09:19:45;;;;;;;27.85;8.75;;;;;;;7.35;78.40;99912.78;5031912;28;20490;-75
2023/01/10 09:22:12;;;;;;;23.65;8.43;;;;;;;7.36;78.46;99911.88;5031756;28;20045;-75
2023/01/10 09:24:38;;;;;;;26.45;7.72;;;;;;;7.37;78.93;99922.28;5032295;28;20136;-75
2023/01/10 09:27:05;;;;;;;23.30;7.95;;;;;;;7.38;79.03;99918.75;5031754;28;20124;-75
2023/01/10 09:29:31;;;;;;;27.60;9.27;;;;;;;7.39;78.43;99915.22;5032036;28;20111;-75
2023/01/10 09:31:58;;;;;;;22.15;7.90;;;;;;;7.42;78.82;99920.34;5032217;28;20068;-74
2023/01/10 09:34:25;;;;;;;24.73;7.60;;;;;;;7.43;78.67;99921.16;5031858;28;20071;-76
2023/01/10 09:36:52;;;;;;;22.55;7.75;;;;;;;7.45;78.69;99915.88;5031573;28;20053;-76
2023/01/10 09:39:20;;;;;;;25.33;7.93;;;;;;;7.46;78.43;99910.56;5031893;28;20067;-76
2023/01/10 09:42:17;;;;;;;27.67;7.95;;;;;;;7.44;77.00;99920.25;5031675;28;20077;-74
2023/01/10 09:45:23;;;;;;;23.80;7.10;;;;;;;7.46;76.95;99921.06;5029221;28;20056;-75
2023/01/10 09:48:06;;;;;;;17.38;6.65;;;;;;;7.49;76.95;99925.31;5029990;28;20095;-76
2023/01/10 09:50:45;;;;;;;30.65;7.93;;;;;;;7.51;77.61;99931.34;5030777;28;20064;-76
2023/01/10 09:53:16;;;;;;;21.50;6.75;;;;;;;7.54;77.94;99939.94;5030206;28;20060;-76
2023/01/10 09:55:48;;;;;;;29.17;8.32;;;;;;;7.54;77.93;99939.06;5028866;28;20528;-76
2023/01/10 09:58:18;;;;;;;29.33;7.50;;;;;;;7.57;77.97;99941.56;5014170;28;20120;-76
2023/01/10 10:00:53;;;;;;;21.58;7.07;;;;;;;7.57;77.68;99952.03;5014155;28;20057;-76
2023/01/10 10:03:30;;;;;;;19.70;6.32;;;;;;;7.60;78.51;99957.16;5013968;28;20514;-76
2023/01/10 10:05:57;;;;;;;26.30;7.00;;;;;;;7.61;78.18;99951.00;5031792;28;20055;-76
2023/01/10 10:08:39;;;;;;;23.77;6.45;;;;;;;7.62;78.30;99957.94;5031719;28;20106;-76
2023/01/10 10:11:22;;;;;;;27.55;7.28;;;;;;;7.60;76.84;99954.53;5014121;28;20123;-76
2023/01/10 10:14:01;;;;;;;28.20;7.57;;;;;;;7.64;78.09;99947.41;5031669;28;20069;-76
2023/01/10 10:16:48;;;;;;;23.85;6.40;;;;;;;7.63;77.18;99943.91;5031521;28;20060;-76
2023/01/10 10:19:39;;;;;;;25.33;6.15;;;;;;;7.65;77.08;99944.72;5031464;28;20053;-76
2023/01/10 10:22:33;;;;;;;24.90;6.60;;;;;;;7.66;77.17;99940.31;5031656;28;20059;-77
2023/01/10 10:25:41;;;;;;;19.77;5.60;;;;;;;7.64;75.45;99944.78;5031247;28;20052;-76
2023/01/10 10:28:13;;;;;;;19.17;5.78;;;;;;;7.69;77.75;99951.53;4977405;28;20130;-76
2023/01/10 10:30:46;;;;;;;29.90;6.32;;;;;;;7.67;77.33;99949.91;5031133;28;20132;-76
2023/01/10 10:33:12;;;;;;;25.25;6.47;;;;;;;7.66;77.70;99949.03;5031126;28;20053;-76
2023/01/10 10:35:48;;;;;;;25.67;6.45;;;;;;;7.65;76.67;99949.97;5031055;28;20057;-76
2023/01/10 10:38:28;;;;;;;26.75;6.70;;;;;;;7.62;75.53;99952.69;5031034;28;20108;-76
2023/01/10 10:40:58;;;;;;;26.00;6.68;;;;;;;7.64;77.43;99950.03;5030197;28;20054;-76
2023/01/10 10:43:36;;;;;;;20.65;5.68;;;;;;;7.61;75.79;99953.63;5030382;28;20479;-76
2023/01/10 10:46:11;;;;;;;28.25;6.80;;;;;;;7.65;77.31;99963.06;5011159;28;20099;-76
2023/01/10 10:49:14;;;;;;;24.95;6.88;;;;;;;7.65;76.63;99954.34;5030789;28;20060;-76
2023/01/10 10:51:50;;;;;;;28.33;7.00;;;;;;;7.68;77.13;99956.84;5030801;28;20072;-76
2023/01/10 10:54:17;;;;;;;24.60;6.78;;;;;;;7.72;78.71;99950.56;5030967;28;20144;-76
2023/01/10 10:56:44;;;;;;;26.15;7.30;;;;;;;7.76;78.98;99940.78;5030140;28;20065;-77
2023/01/10 10:59:17;;;;;;;21.83;6.90;;;;;;;7.77;77.46;99943.34;5028592;28;20167;-75
2023/01/10 11:01:48;;;;;;;32.40;8.10;;;;;;;7.84;78.56;99936.06;5012672;28;20473;-76
2023/01/10 11:04:19;;;;;;;26.67;6.57;;;;;;;7.88;77.95;99928.91;5022100;28;20490;-76
2023/01/10 11:06:49;;;;;;;22.70;7.45;;;;;;;7.94;78.58;99913.81;5022208;28;20061;-76
2023/01/10 11:09:24;;;;;;;37.88;8.52;;;;;;;7.99;78.24;99918.00;5030646;28;20045;-76
2023/01/10 11:11:53;;;;;;;20.65;6.15;;;;;;;8.03;78.09;99917.78;5028264;28;20475;-76
2023/01/10 11:14:47;;;;;;;25.90;8.25;;;;;;;8.05;75.24;99912.47;5030046;28;20144;-76
2023/01/10 11:17:26;;;;;;;24.73;7.40;;;;;;;8.13;77.08;99914.75;5027717;28;20057;-76
2023/01/10 11:20:00;;;;;;;26.17;7.30;;;;;;;8.16;77.21;99898.88;5030627;28;20413;-76
2023/01/10 11:22:29;;;;;;;;;;;;;;;8.19;74.86;99904.84;5029768;28;20053;-76
2023/01/10 11:25:00;;;;;;;23.98;6.07;;;;;;;8.28;77.20;99907.97;5021732;28;20035;-76
2023/01/10 11:27:48;;;;;;;27.08;7.00;;;;;;;8.26;75.51;99910.66;5029878;28;20085;-76
2023/01/10 11:30:22;;;;;;;26.60;6.93;;;;;;;8.30;77.11;99911.38;5010738;28;20050;-76
2023/01/10 11:32:55;;;;;;;25.58;6.38;;;;;;;8.31;76.35;99902.59;5011266;28;20062;-76
2023/01/10 11:35:27;;;;;;;25.38;6.90;;;;;;;8.32;76.68;99899.91;4993038;28;20092;-76
2023/01/10 11:38:03;;;;;;;27.92;6.85;;;;;;;8.33;76.50;99911.22;5010260;28;20057;-76
2023/01/10 11:40:36;;;;;;;27.33;6.38;;;;;;;8.35;76.36;99912.84;5010891;28;20099;-76
2023/01/10 11:43:25;;;;;;;26.52;6.57;;;;;;;8.35;75.69;99912.84;5010431;28;20066;-76
2023/01/10 11:46:01;;;;;;;27.63;6.22;;;;;;;8.38;76.18;99909.28;5010347;28;20108;-76
2023/01/10 11:48:41;;;;;;;23.30;6.40;;;;;;;8.40;75.89;99909.19;5010582;28;20081;-76
2023/01/10 11:51:38;;;;;;;29.65;6.40;;;;;;;8.40;75.25;99907.41;5010959;28;20422;-76
2023/01/10 11:54:15;;;;;;;19.40;5.85;;;;;;;8.42;76.03;99902.09;5012807;28;20761;-75
2023/01/10 11:56:59;;;;;;;22.83;5.20;;;;;;;8.46;77.80;99891.38;5014242;28;20067;-76
2023/01/10 11:59:27;;;;;;;19.13;5.78;;;;;;;8.50;77.50;99893.88;5014173;28;20490;-75
2023/01/10 12:02:22;;;;;;;23.73;4.72;;;;;;;8.51;75.94;99892.94;5014261;28;20104;-76